Afton, Minnesota
Current Conditions -  °F | °C
As of 11:31 PM on Saturday 22 Nov 2014 (Local Time) from K21D Reporting Station
Haze Haze  
Wind Chill:   Ceiling: 400
Heat Index:   Visibility: 2.5mi
Dew Point:   Wind: 6mph
Humidity: 100%   Direction: 160°SSE
Pressure: 29.53"   Gusts: NA
Location:  44.9°N, 92.78°W
Report Text: K21D 230531Z AUTO 16005KT 2 1/2SM BR OVC004 04/04 A2953 RMK AO2
Loading
Personal Weather Stations






























Interactive Weather Map New forecast layout! Learn more

10-Day Weather Forecast

Advertisements
Track Severe Weather on mobile